sensor_id;sensor_type;location;lat;lon;timestamp;P1;durP1;ratioP1;P2;durP2;ratioP2
14203;SDS011;7185;51.854;6.622;2023-02-21T00:02:10;68.60;;;27.55;;
14203;SDS011;7185;51.854;6.622;2023-02-21T00:05:00;80.50;;;30.30;;
14203;SDS011;7185;51.854;6.622;2023-02-21T00:07:49;74.32;;;29.63;;
14203;SDS011;7185;51.854;6.622;2023-02-21T00:10:38;65.45;;;26.83;;
14203;SDS011;7185;51.854;6.622;2023-02-21T00:13:27;74.80;;;29.23;;
14203;SDS011;7185;51.854;6.622;2023-02-21T00:16:18;65.10;;;26.80;;
14203;SDS011;7185;51.854;6.622;2023-02-21T00:19:07;76.50;;;29.55;;
14203;SDS011;7185;51.854;6.622;2023-02-21T00:21:57;71.72;;;27.90;;
14203;SDS011;7185;51.854;6.622;2023-02-21T00:24:45;74.70;;;29.48;;
14203;SDS011;7185;51.854;6.622;2023-02-21T00:27:35;76.15;;;29.33;;
14203;SDS011;7185;51.854;6.622;2023-02-21T00:30:24;76.55;;;29.33;;
14203;SDS011;7185;51.854;6.622;2023-02-21T00:33:14;79.28;;;31.25;;
14203;SDS011;7185;51.854;6.622;2023-02-21T00:36:03;71.88;;;30.50;;
14203;SDS011;7185;51.854;6.622;2023-02-21T00:38:53;77.65;;;28.38;;
14203;SDS011;7185;51.854;6.622;2023-02-21T00:41:42;81.53;;;31.40;;
14203;SDS011;7185;51.854;6.622;2023-02-21T00:44:31;76.50;;;30.23;;
14203;SDS011;7185;51.854;6.622;2023-02-21T00:47:20;83.93;;;31.05;;
14203;SDS011;7185;51.854;6.622;2023-02-21T00:50:10;75.43;;;29.77;;
14203;SDS011;7185;51.854;6.622;2023-02-21T00:53:01;83.13;;;31.85;;
14203;SDS011;7185;51.854;6.622;2023-02-21T00:55:50;75.78;;;30.20;;
14203;SDS011;7185;51.854;6.622;2023-02-21T00:58:38;86.63;;;30.98;;
14203;SDS011;7185;51.854;6.622;2023-02-21T01:01:28;77.30;;;30.42;;
14203;SDS011;7185;51.854;6.622;2023-02-21T01:04:17;82.43;;;31.65;;
14203;SDS011;7185;51.854;6.622;2023-02-21T01:07:08;83.32;;;31.85;;
14203;SDS011;7185;51.854;6.622;2023-02-21T01:09:56;70.10;;;28.92;;
14203;SDS011;7185;51.854;6.622;2023-02-21T01:12:45;86.07;;;32.10;;
14203;SDS011;7185;51.854;6.622;2023-02-21T01:15:35;83.65;;;32.22;;
14203;SDS011;7185;51.854;6.622;2023-02-21T01:18:24;88.22;;;32.53;;
14203;SDS011;7185;51.854;6.622;2023-02-21T01:21:13;84.68;;;32.75;;
14203;SDS011;7185;51.854;6.622;2023-02-21T01:24:05;85.35;;;31.52;;
14203;SDS011;7185;51.854;6.622;2023-02-21T01:26:57;80.20;;;32.53;;
14203;SDS011;7185;51.854;6.622;2023-02-21T01:29:46;86.50;;;31.48;;
14203;SDS011;7185;51.854;6.622;2023-02-21T01:32:35;82.57;;;30.55;;
14203;SDS011;7185;51.854;6.622;2023-02-21T01:35:24;78.63;;;30.27;;
14203;SDS011;7185;51.854;6.622;2023-02-21T01:38:13;84.07;;;32.13;;
14203;SDS011;7185;51.854;6.622;2023-02-21T01:41:04;80.82;;;31.52;;
14203;SDS011;7185;51.854;6.622;2023-02-21T01:43:57;83.45;;;32.08;;
14203;SDS011;7185;51.854;6.622;2023-02-21T01:46:47;83.45;;;30.60;;
14203;SDS011;7185;51.854;6.622;2023-02-21T01:49:37;83.10;;;30.83;;
14203;SDS011;7185;51.854;6.622;2023-02-21T01:52:28;79.60;;;32.47;;
14203;SDS011;7185;51.854;6.622;2023-02-21T01:55:17;77.70;;;30.45;;
14203;SDS011;7185;51.854;6.622;2023-02-21T01:58:08;74.90;;;30.67;;
14203;SDS011;7185;51.854;6.622;2023-02-21T02:00:57;77.18;;;30.92;;
14203;SDS011;7185;51.854;6.622;2023-02-21T02:03:46;78.32;;;28.73;;
14203;SDS011;7185;51.854;6.622;2023-02-21T02:06:35;76.53;;;29.55;;
14203;SDS011;7185;51.854;6.622;2023-02-21T02:09:24;85.45;;;31.35;;
14203;SDS011;7185;51.854;6.622;2023-02-21T02:12:17;81.05;;;30.70;;
14203;SDS011;7185;51.854;6.622;2023-02-21T02:15:11;77.55;;;31.15;;
14203;SDS011;7185;51.854;6.622;2023-02-21T02:18:21;77.60;;;30.67;;
14203;SDS011;7185;51.854;6.622;2023-02-21T02:21:24;75.40;;;30.27;;
14203;SDS011;7185;51.854;6.622;2023-02-21T02:27:19;77.65;;;29.80;;
14203;SDS011;7185;51.854;6.622;2023-02-21T02:33:35;73.72;;;29.30;;
14203;SDS011;7185;51.854;6.622;2023-02-21T02:36:24;82.63;;;30.58;;
14203;SDS011;7185;51.854;6.622;2023-02-21T02:39:01;76.13;;;31.88;;
14203;SDS011;7185;51.854;6.622;2023-02-21T02:41:44;85.03;;;31.08;;
14203;SDS011;7185;51.854;6.622;2023-02-21T02:44:23;88.88;;;32.72;;
14203;SDS011;7185;51.854;6.622;2023-02-21T02:46:59;80.93;;;32.20;;
14203;SDS011;7185;51.854;6.622;2023-02-21T02:49:33;89.85;;;32.33;;
14203;SDS011;7185;51.854;6.622;2023-02-21T02:52:09;91.10;;;34.33;;
14203;SDS011;7185;51.854;6.622;2023-02-21T02:54:41;86.35;;;32.42;;
14203;SDS011;7185;51.854;6.622;2023-02-21T02:57:13;89.93;;;33.45;;
14203;SDS011;7185;51.854;6.622;2023-02-21T02:59:44;93.93;;;33.80;;
14203;SDS011;7185;51.854;6.622;2023-02-21T03:02:27;99.93;;;33.83;;
14203;SDS011;7185;51.854;6.622;2023-02-21T03:05:28;90.38;;;33.03;;
14203;SDS011;7185;51.854;6.622;2023-02-21T03:08:16;97.00;;;33.35;;
14203;SDS011;7185;51.854;6.622;2023-02-21T03:10:57;98.85;;;34.97;;
14203;SDS011;7185;51.854;6.622;2023-02-21T03:13:35;99.85;;;35.40;;
14203;SDS011;7185;51.854;6.622;2023-02-21T03:16:12;94.05;;;35.17;;
14203;SDS011;7185;51.854;6.622;2023-02-21T03:18:49;97.38;;;35.42;;
14203;SDS011;7185;51.854;6.622;2023-02-21T03:21:25;109.13;;;37.60;;
14203;SDS011;7185;51.854;6.622;2023-02-21T03:24:03;116.18;;;35.38;;
14203;SDS011;7185;51.854;6.622;2023-02-21T03:26:36;102.57;;;35.42;;
14203;SDS011;7185;51.854;6.622;2023-02-21T03:29:10;106.30;;;34.58;;
14203;SDS011;7185;51.854;6.622;2023-02-21T03:31:43;111.05;;;36.17;;
14203;SDS011;7185;51.854;6.622;2023-02-21T03:34:18;109.90;;;35.58;;
14203;SDS011;7185;51.854;6.622;2023-02-21T03:36:49;108.78;;;36.47;;
14203;SDS011;7185;51.854;6.622;2023-02-21T03:39:22;119.05;;;35.65;;
14203;SDS011;7185;51.854;6.622;2023-02-21T03:41:54;105.80;;;34.63;;
14203;SDS011;7185;51.854;6.622;2023-02-21T03:44:26;102.82;;;33.50;;
14203;SDS011;7185;51.854;6.622;2023-02-21T03:46:57;107.18;;;35.45;;
14203;SDS011;7185;51.854;6.622;2023-02-21T03:49:29;121.43;;;36.92;;
14203;SDS011;7185;51.854;6.622;2023-02-21T03:52:00;112.75;;;35.55;;
14203;SDS011;7185;51.854;6.622;2023-02-21T03:54:33;118.70;;;37.55;;
14203;SDS011;7185;51.854;6.622;2023-02-21T03:57:05;107.10;;;36.17;;
14203;SDS011;7185;51.854;6.622;2023-02-21T03:59:37;109.30;;;34.45;;
14203;SDS011;7185;51.854;6.622;2023-02-21T04:02:08;111.97;;;36.20;;
14203;SDS011;7185;51.854;6.622;2023-02-21T04:04:40;109.97;;;34.60;;
14203;SDS011;7185;51.854;6.622;2023-02-21T04:07:12;123.15;;;37.58;;
14203;SDS011;7185;51.854;6.622;2023-02-21T04:09:45;125.50;;;38.90;;
14203;SDS011;7185;51.854;6.622;2023-02-21T04:12:17;113.03;;;35.35;;
14203;SDS011;7185;51.854;6.622;2023-02-21T04:14:48;114.47;;;36.45;;
14203;SDS011;7185;51.854;6.622;2023-02-21T04:17:21;111.68;;;35.50;;
14203;SDS011;7185;51.854;6.622;2023-02-21T04:22:25;109.28;;;36.53;;
14203;SDS011;7185;51.854;6.622;2023-02-21T04:24:58;122.05;;;35.80;;
14203;SDS011;7185;51.854;6.622;2023-02-21T04:27:30;110.78;;;34.53;;
14203;SDS011;7185;51.854;6.622;2023-02-21T04:30:01;117.95;;;33.75;;
14203;SDS011;7185;51.854;6.622;2023-02-21T04:32:33;120.35;;;35.65;;
14203;SDS011;7185;51.854;6.622;2023-02-21T04:35:05;104.70;;;34.70;;
14203;SDS011;7185;51.854;6.622;2023-02-21T04:37:36;117.65;;;34.97;;
14203;SDS011;7185;51.854;6.622;2023-02-21T04:40:10;115.25;;;36.65;;
14203;SDS011;7185;51.854;6.622;2023-02-21T04:42:42;110.03;;;33.85;;
14203;SDS011;7185;51.854;6.622;2023-02-21T04:45:13;108.15;;;34.50;;
14203;SDS011;7185;51.854;6.622;2023-02-21T04:47:45;123.65;;;36.47;;
14203;SDS011;7185;51.854;6.622;2023-02-21T04:50:17;123.55;;;34.85;;
14203;SDS011;7185;51.854;6.622;2023-02-21T04:52:48;112.57;;;35.33;;
14203;SDS011;7185;51.854;6.622;2023-02-21T04:55:21;123.35;;;36.35;;
14203;SDS011;7185;51.854;6.622;2023-02-21T04:57:53;118.53;;;36.72;;
14203;SDS011;7185;51.854;6.622;2023-02-21T05:00:24;120.00;;;37.47;;
14203;SDS011;7185;51.854;6.622;2023-02-21T05:02:56;122.50;;;37.38;;
14203;SDS011;7185;51.854;6.622;2023-02-21T05:05:28;114.75;;;35.65;;
14203;SDS011;7185;51.854;6.622;2023-02-21T05:07:59;118.45;;;36.33;;
14203;SDS011;7185;51.854;6.622;2023-02-21T05:10:32;121.05;;;36.13;;
14203;SDS011;7185;51.854;6.622;2023-02-21T05:13:04;116.22;;;34.42;;
14203;SDS011;7185;51.854;6.622;2023-02-21T05:15:35;126.07;;;35.38;;
14203;SDS011;7185;51.854;6.622;2023-02-21T05:18:07;115.13;;;35.70;;
14203;SDS011;7185;51.854;6.622;2023-02-21T05:20:39;104.95;;;34.92;;
14203;SDS011;7185;51.854;6.622;2023-02-21T05:23:11;109.93;;;34.78;;
14203;SDS011;7185;51.854;6.622;2023-02-21T05:25:47;111.15;;;35.28;;
14203;SDS011;7185;51.854;6.622;2023-02-21T05:28:19;113.47;;;36.00;;
14203;SDS011;7185;51.854;6.622;2023-02-21T05:30:50;119.60;;;35.35;;
14203;SDS011;7185;51.854;6.622;2023-02-21T05:33:22;115.85;;;35.25;;
14203;SDS011;7185;51.854;6.622;2023-02-21T05:35:54;116.82;;;34.60;;
14203;SDS011;7185;51.854;6.622;2023-02-21T05:38:26;124.97;;;36.55;;
14203;SDS011;7185;51.854;6.622;2023-02-21T05:40:59;114.40;;;34.42;;
14203;SDS011;7185;51.854;6.622;2023-02-21T05:43:31;139.48;;;38.03;;
14203;SDS011;7185;51.854;6.622;2023-02-21T05:46:02;118.22;;;35.30;;
14203;SDS011;7185;51.854;6.622;2023-02-21T05:48:34;113.20;;;34.45;;
14203;SDS011;7185;51.854;6.622;2023-02-21T05:51:06;122.25;;;36.95;;
14203;SDS011;7185;51.854;6.622;2023-02-21T05:53:37;115.40;;;34.20;;
14203;SDS011;7185;51.854;6.622;2023-02-21T05:56:10;119.85;;;34.33;;
14203;SDS011;7185;51.854;6.622;2023-02-21T05:58:42;119.78;;;36.00;;
14203;SDS011;7185;51.854;6.622;2023-02-21T06:01:14;118.55;;;35.70;;
14203;SDS011;7185;51.854;6.622;2023-02-21T06:03:46;118.55;;;36.33;;
14203;SDS011;7185;51.854;6.622;2023-02-21T06:06:18;122.15;;;35.25;;
14203;SDS011;7185;51.854;6.622;2023-02-21T06:08:49;118.03;;;34.83;;
14203;SDS011;7185;51.854;6.622;2023-02-21T06:11:23;121.15;;;36.05;;
14203;SDS011;7185;51.854;6.622;2023-02-21T06:13:56;117.90;;;34.17;;
14203;SDS011;7185;51.854;6.622;2023-02-21T06:16:31;120.63;;;35.67;;
14203;SDS011;7185;51.854;6.622;2023-02-21T06:19:03;132.85;;;36.95;;
14203;SDS011;7185;51.854;6.622;2023-02-21T06:21:37;126.55;;;35.97;;
14203;SDS011;7185;51.854;6.622;2023-02-21T06:24:11;133.98;;;36.70;;
14203;SDS011;7185;51.854;6.622;2023-02-21T06:26:44;133.98;;;37.70;;
14203;SDS011;7185;51.854;6.622;2023-02-21T06:29:16;138.07;;;39.20;;
14203;SDS011;7185;51.854;6.622;2023-02-21T06:31:47;147.02;;;38.55;;
14203;SDS011;7185;51.854;6.622;2023-02-21T06:34:19;149.45;;;40.22;;
14203;SDS011;7185;51.854;6.622;2023-02-21T06:36:50;139.45;;;36.53;;
14203;SDS011;7185;51.854;6.622;2023-02-21T06:39:23;137.00;;;38.33;;
14203;SDS011;7185;51.854;6.622;2023-02-21T06:41:56;135.35;;;37.47;;
14203;SDS011;7185;51.854;6.622;2023-02-21T06:44:27;139.80;;;40.10;;
14203;SDS011;7185;51.854;6.622;2023-02-21T06:46:59;147.88;;;37.05;;
14203;SDS011;7185;51.854;6.622;2023-02-21T06:49:30;145.02;;;38.17;;
14203;SDS011;7185;51.854;6.622;2023-02-21T06:52:02;143.95;;;38.58;;
14203;SDS011;7185;51.854;6.622;2023-02-21T06:54:34;163.05;;;39.08;;
14203;SDS011;7185;51.854;6.622;2023-02-21T06:57:07;140.13;;;37.85;;
14203;SDS011;7185;51.854;6.622;2023-02-21T06:59:38;150.75;;;39.60;;
14203;SDS011;7185;51.854;6.622;2023-02-21T07:02:13;145.35;;;39.13;;
14203;SDS011;7185;51.854;6.622;2023-02-21T07:07:18;141.77;;;36.70;;
14203;SDS011;7185;51.854;6.622;2023-02-21T07:09:50;147.73;;;37.17;;
14203;SDS011;7185;51.854;6.622;2023-02-21T07:12:23;138.40;;;37.25;;
14203;SDS011;7185;51.854;6.622;2023-02-21T07:14:54;141.20;;;37.00;;
14203;SDS011;7185;51.854;6.622;2023-02-21T07:17:26;153.75;;;38.78;;
14203;SDS011;7185;51.854;6.622;2023-02-21T07:19:58;143.75;;;38.05;;
14203;SDS011;7185;51.854;6.622;2023-02-21T07:22:29;152.93;;;36.92;;
14203;SDS011;7185;51.854;6.622;2023-02-21T07:25:01;163.52;;;37.80;;
14203;SDS011;7185;51.854;6.622;2023-02-21T07:27:34;156.75;;;38.13;;
14203;SDS011;7185;51.854;6.622;2023-02-21T07:30:06;160.90;;;38.95;;
14203;SDS011;7185;51.854;6.622;2023-02-21T07:32:38;149.52;;;37.70;;
14203;SDS011;7185;51.854;6.622;2023-02-21T07:35:10;160.57;;;36.65;;
14203;SDS011;7185;51.854;6.622;2023-02-21T07:37:42;155.82;;;37.60;;
14203;SDS011;7185;51.854;6.622;2023-02-21T07:40:14;144.02;;;35.55;;
14203;SDS011;7185;51.854;6.622;2023-02-21T07:42:47;142.05;;;36.80;;
14203;SDS011;7185;51.854;6.622;2023-02-21T07:45:18;135.82;;;35.50;;
14203;SDS011;7185;51.854;6.622;2023-02-21T07:47:50;141.18;;;34.67;;
14203;SDS011;7185;51.854;6.622;2023-02-21T07:50:22;136.75;;;33.67;;
14203;SDS011;7185;51.854;6.622;2023-02-21T07:52:54;127.57;;;32.53;;
14203;SDS011;7185;51.854;6.622;2023-02-21T07:55:25;127.45;;;34.38;;
14203;SDS011;7185;51.854;6.622;2023-02-21T07:57:58;119.72;;;32.25;;
14203;SDS011;7185;51.854;6.622;2023-02-21T08:00:31;121.10;;;33.85;;
14203;SDS011;7185;51.854;6.622;2023-02-21T08:03:02;125.32;;;32.00;;
14203;SDS011;7185;51.854;6.622;2023-02-21T08:05:34;121.13;;;32.67;;
14203;SDS011;7185;51.854;6.622;2023-02-21T08:08:06;133.25;;;32.35;;
14203;SDS011;7185;51.854;6.622;2023-02-21T08:10:38;123.32;;;32.05;;
14203;SDS011;7185;51.854;6.622;2023-02-21T08:13:11;122.63;;;34.60;;
14203;SDS011;7185;51.854;6.622;2023-02-21T08:15:42;119.22;;;31.85;;
14203;SDS011;7185;51.854;6.622;2023-02-21T08:18:14;125.72;;;31.35;;
14203;SDS011;7185;51.854;6.622;2023-02-21T08:20:49;135.70;;;33.03;;
14203;SDS011;7185;51.854;6.622;2023-02-21T08:23:21;110.70;;;30.55;;
14203;SDS011;7185;51.854;6.622;2023-02-21T08:25:53;119.57;;;29.63;;
14203;SDS011;7185;51.854;6.622;2023-02-21T08:28:26;118.22;;;29.80;;
14203;SDS011;7185;51.854;6.622;2023-02-21T08:30:57;122.63;;;32.42;;
14203;SDS011;7185;51.854;6.622;2023-02-21T08:33:29;117.47;;;30.35;;
14203;SDS011;7185;51.854;6.622;2023-02-21T08:36:01;112.78;;;29.83;;
14203;SDS011;7185;51.854;6.622;2023-02-21T08:38:32;107.35;;;29.98;;
14203;SDS011;7185;51.854;6.622;2023-02-21T08:41:04;110.80;;;28.65;;
14203;SDS011;7185;51.854;6.622;2023-02-21T08:43:37;114.80;;;29.27;;
14203;SDS011;7185;51.854;6.622;2023-02-21T08:46:09;114.40;;;29.38;;
14203;SDS011;7185;51.854;6.622;2023-02-21T08:48:42;111.72;;;29.02;;
14203;SDS011;7185;51.854;6.622;2023-02-21T08:51:13;103.72;;;28.60;;
14203;SDS011;7185;51.854;6.622;2023-02-21T08:53:45;110.95;;;29.25;;
14203;SDS011;7185;51.854;6.622;2023-02-21T08:56:17;117.60;;;30.05;;
14203;SDS011;7185;51.854;6.622;2023-02-21T08:58:51;111.20;;;29.15;;
14203;SDS011;7185;51.854;6.622;2023-02-21T09:01:28;106.15;;;28.95;;
14203;SDS011;7185;51.854;6.622;2023-02-21T09:04:02;101.25;;;27.35;;
14203;SDS011;7185;51.854;6.622;2023-02-21T09:06:34;105.40;;;28.98;;
14203;SDS011;7185;51.854;6.622;2023-02-21T09:09:06;107.57;;;29.77;;
14203;SDS011;7185;51.854;6.622;2023-02-21T09:11:37;94.88;;;25.75;;
14203;SDS011;7185;51.854;6.622;2023-02-21T09:14:11;103.85;;;27.60;;
14203;SDS011;7185;51.854;6.622;2023-02-21T09:16:42;108.05;;;27.38;;
14203;SDS011;7185;51.854;6.622;2023-02-21T09:19:14;100.13;;;26.55;;
14203;SDS011;7185;51.854;6.622;2023-02-21T09:21:46;96.28;;;28.00;;
14203;SDS011;7185;51.854;6.622;2023-02-21T09:24:24;110.85;;;26.23;;
14203;SDS011;7185;51.854;6.622;2023-02-21T09:26:57;84.15;;;24.70;;
14203;SDS011;7185;51.854;6.622;2023-02-21T09:29:33;85.63;;;23.63;;
14203;SDS011;7185;51.854;6.622;2023-02-21T09:32:06;91.38;;;23.70;;
14203;SDS011;7185;51.854;6.622;2023-02-21T09:34:38;85.75;;;25.23;;
14203;SDS011;7185;51.854;6.622;2023-02-21T09:37:10;76.68;;;21.92;;
14203;SDS011;7185;51.854;6.622;2023-02-21T09:39:41;81.95;;;22.77;;
14203;SDS011;7185;51.854;6.622;2023-02-21T09:42:14;66.75;;;21.13;;
14203;SDS011;7185;51.854;6.622;2023-02-21T09:44:50;72.00;;;21.05;;
14203;SDS011;7185;51.854;6.622;2023-02-21T09:47:24;65.18;;;21.75;;
14203;SDS011;7185;51.854;6.622;2023-02-21T09:49:59;70.40;;;21.40;;
14203;SDS011;7185;51.854;6.622;2023-02-21T09:52:35;57.30;;;18.90;;
14203;SDS011;7185;51.854;6.622;2023-02-21T09:55:12;57.22;;;18.02;;
14203;SDS011;7185;51.854;6.622;2023-02-21T09:57:50;47.22;;;16.40;;
14203;SDS011;7185;51.854;6.622;2023-02-21T10:00:25;43.95;;;14.52;;
14203;SDS011;7185;51.854;6.622;2023-02-21T10:03:07;37.97;;;13.45;;
14203;SDS011;7185;51.854;6.622;2023-02-21T10:05:50;38.28;;;13.70;;
14203;SDS011;7185;51.854;6.622;2023-02-21T10:08:33;40.90;;;13.65;;
14203;SDS011;7185;51.854;6.622;2023-02-21T10:11:19;33.30;;;12.55;;
14203;SDS011;7185;51.854;6.622;2023-02-21T10:14:01;32.60;;;12.50;;
14203;SDS011;7185;51.854;6.622;2023-02-21T10:16:43;34.97;;;13.35;;
14203;SDS011;7185;51.854;6.622;2023-02-21T10:19:24;31.70;;;12.32;;
14203;SDS011;7185;51.854;6.622;2023-02-21T10:22:01;35.03;;;12.73;;
14203;SDS011;7185;51.854;6.622;2023-02-21T10:24:43;34.92;;;13.25;;
14203;SDS011;7185;51.854;6.622;2023-02-21T10:27:16;33.38;;;11.88;;
14203;SDS011;7185;51.854;6.622;2023-02-21T10:29:50;31.75;;;12.27;;
14203;SDS011;7185;51.854;6.622;2023-02-21T10:32:26;28.90;;;11.70;;
14203;SDS011;7185;51.854;6.622;2023-02-21T10:34:58;29.50;;;10.43;;
14203;SDS011;7185;51.854;6.622;2023-02-21T10:37:34;25.92;;;10.10;;
14203;SDS011;7185;51.854;6.622;2023-02-21T10:42:55;25.95;;;9.73;;
14203;SDS011;7185;51.854;6.622;2023-02-21T10:45:34;26.60;;;9.73;;
14203;SDS011;7185;51.854;6.622;2023-02-21T10:48:11;27.13;;;10.35;;
14203;SDS011;7185;51.854;6.622;2023-02-21T10:50:48;28.13;;;10.05;;
14203;SDS011;7185;51.854;6.622;2023-02-21T10:53:23;27.80;;;9.52;;
14203;SDS011;7185;51.854;6.622;2023-02-21T10:58:56;28.10;;;10.20;;
14203;SDS011;7185;51.854;6.622;2023-02-21T11:01:35;21.75;;;9.40;;
14203;SDS011;7185;51.854;6.622;2023-02-21T11:04:23;20.42;;;8.98;;
14203;SDS011;7185;51.854;6.622;2023-02-21T11:06:58;24.55;;;10.30;;
14203;SDS011;7185;51.854;6.622;2023-02-21T11:09:35;25.83;;;9.15;;
14203;SDS011;7185;51.854;6.622;2023-02-21T11:12:16;23.83;;;9.52;;
14203;SDS011;7185;51.854;6.622;2023-02-21T11:15:04;26.95;;;10.70;;
14203;SDS011;7185;51.854;6.622;2023-02-21T11:17:46;27.98;;;10.38;;
14203;SDS011;7185;51.854;6.622;2023-02-21T11:20:35;28.40;;;10.52;;
14203;SDS011;7185;51.854;6.622;2023-02-21T11:26:04;25.92;;;11.70;;
14203;SDS011;7185;51.854;6.622;2023-02-21T11:28:38;28.15;;;10.63;;
14203;SDS011;7185;51.854;6.622;2023-02-21T11:31:14;25.98;;;10.10;;
14203;SDS011;7185;51.854;6.622;2023-02-21T11:33:49;30.55;;;10.40;;
14203;SDS011;7185;51.854;6.622;2023-02-21T11:36:28;27.15;;;11.07;;
14203;SDS011;7185;51.854;6.622;2023-02-21T11:39:03;23.90;;;9.52;;
14203;SDS011;7185;51.854;6.622;2023-02-21T11:41:37;25.50;;;10.73;;
14203;SDS011;7185;51.854;6.622;2023-02-21T11:44:25;26.77;;;11.02;;
14203;SDS011;7185;51.854;6.622;2023-02-21T11:47:21;23.02;;;9.70;;
14203;SDS011;7185;51.854;6.622;2023-02-21T11:49:58;25.70;;;10.68;;
14203;SDS011;7185;51.854;6.622;2023-02-21T11:56:00;25.92;;;10.90;;
14203;SDS011;7185;51.854;6.622;2023-02-21T11:58:45;30.63;;;11.63;;
14203;SDS011;7185;51.854;6.622;2023-02-21T12:01:26;26.45;;;11.05;;
14203;SDS011;7185;51.854;6.622;2023-02-21T12:04:17;28.73;;;10.82;;
14203;SDS011;7185;51.854;6.622;2023-02-21T12:07:03;30.08;;;11.57;;
14203;SDS011;7185;51.854;6.622;2023-02-21T12:09:44;27.05;;;10.88;;
14203;SDS011;7185;51.854;6.622;2023-02-21T12:12:31;25.13;;;10.85;;
14203;SDS011;7185;51.854;6.622;2023-02-21T12:15:14;26.33;;;10.75;;
14203;SDS011;7185;51.854;6.622;2023-02-21T12:21:00;25.65;;;10.90;;
14203;SDS011;7185;51.854;6.622;2023-02-21T12:23:45;27.48;;;11.43;;
14203;SDS011;7185;51.854;6.622;2023-02-21T12:26:27;25.92;;;10.55;;
14203;SDS011;7185;51.854;6.622;2023-02-21T12:29:08;26.48;;;11.38;;
14203;SDS011;7185;51.854;6.622;2023-02-21T12:31:55;23.80;;;10.52;;
14203;SDS011;7185;51.854;6.622;2023-02-21T12:34:43;24.20;;;10.73;;
14203;SDS011;7185;51.854;6.622;2023-02-21T12:37:30;21.48;;;10.23;;
14203;SDS011;7185;51.854;6.622;2023-02-21T12:40:15;22.95;;;9.45;;
14203;SDS011;7185;51.854;6.622;2023-02-21T12:43:02;25.83;;;10.68;;
14203;SDS011;7185;51.854;6.622;2023-02-21T12:45:48;23.45;;;10.48;;
14203;SDS011;7185;51.854;6.622;2023-02-21T12:48:30;26.67;;;10.00;;
14203;SDS011;7185;51.854;6.622;2023-02-21T12:51:07;25.85;;;10.45;;
14203;SDS011;7185;51.854;6.622;2023-02-21T12:53:44;24.15;;;10.32;;
14203;SDS011;7185;51.854;6.622;2023-02-21T12:56:22;23.95;;;9.30;;
14203;SDS011;7185;51.854;6.622;2023-02-21T12:58:58;22.27;;;9.73;;
14203;SDS011;7185;51.854;6.622;2023-02-21T13:01:37;22.30;;;9.50;;
14203;SDS011;7185;51.854;6.622;2023-02-21T13:04:14;23.17;;;9.95;;
14203;SDS011;7185;51.854;6.622;2023-02-21T13:06:54;22.70;;;9.80;;
14203;SDS011;7185;51.854;6.622;2023-02-21T13:09:31;25.35;;;9.00;;
14203;SDS011;7185;51.854;6.622;2023-02-21T13:12:06;18.02;;;8.57;;
14203;SDS011;7185;51.854;6.622;2023-02-21T13:14:42;22.92;;;8.55;;
14203;SDS011;7185;51.854;6.622;2023-02-21T13:17:20;22.48;;;9.57;;
14203;SDS011;7185;51.854;6.622;2023-02-21T13:19:52;18.48;;;8.23;;
14203;SDS011;7185;51.854;6.622;2023-02-21T13:26:02;20.90;;;9.07;;
14203;SDS011;7185;51.854;6.622;2023-02-21T13:28:50;21.08;;;9.23;;
14203;SDS011;7185;51.854;6.622;2023-02-21T13:31:24;21.83;;;8.68;;
14203;SDS011;7185;51.854;6.622;2023-02-21T13:33:59;17.95;;;7.68;;
14203;SDS011;7185;51.854;6.622;2023-02-21T13:36:39;23.58;;;8.90;;
14203;SDS011;7185;51.854;6.622;2023-02-21T13:39:16;21.10;;;9.35;;
14203;SDS011;7185;51.854;6.622;2023-02-21T13:41:51;18.95;;;8.65;;
14203;SDS011;7185;51.854;6.622;2023-02-21T13:44:27;22.77;;;10.35;;
14203;SDS011;7185;51.854;6.622;2023-02-21T13:47:07;24.35;;;9.48;;
14203;SDS011;7185;51.854;6.622;2023-02-21T13:49:48;19.23;;;8.98;;
14203;SDS011;7185;51.854;6.622;2023-02-21T13:55:26;22.38;;;9.02;;
14203;SDS011;7185;51.854;6.622;2023-02-21T14:10:14;22.60;;;9.30;;
14203;SDS011;7185;51.854;6.622;2023-02-21T14:12:53;18.17;;;8.60;;
14203;SDS011;7185;51.854;6.622;2023-02-21T14:15:41;22.52;;;8.68;;
14203;SDS011;7185;51.854;6.622;2023-02-21T14:18:19;23.70;;;9.88;;
14203;SDS011;7185;51.854;6.622;2023-02-21T14:20:55;21.98;;;9.80;;
14203;SDS011;7185;51.854;6.622;2023-02-21T14:23:35;20.55;;;9.00;;
14203;SDS011;7185;51.854;6.622;2023-02-21T14:35:12;20.60;;;8.98;;
14203;SDS011;7185;51.854;6.622;2023-02-21T14:37:55;22.13;;;10.18;;
14203;SDS011;7185;51.854;6.622;2023-02-21T14:40:35;20.33;;;8.90;;
14203;SDS011;7185;51.854;6.622;2023-02-21T14:43:30;19.90;;;9.82;;
14203;SDS011;7185;51.854;6.622;2023-02-21T14:52:49;24.25;;;9.68;;
14203;SDS011;7185;51.854;6.622;2023-02-21T14:55:49;23.83;;;9.60;;
14203;SDS011;7185;51.854;6.622;2023-02-21T14:59:18;23.33;;;10.30;;
14203;SDS011;7185;51.854;6.622;2023-02-21T15:02:06;20.58;;;9.70;;
14203;SDS011;7185;51.854;6.622;2023-02-21T15:04:50;23.30;;;10.23;;
14203;SDS011;7185;51.854;6.622;2023-02-21T15:07:30;19.33;;;9.32;;
14203;SDS011;7185;51.854;6.622;2023-02-21T15:10:14;23.63;;;10.40;;
14203;SDS011;7185;51.854;6.622;2023-02-21T15:12:47;23.67;;;10.60;;
14203;SDS011;7185;51.854;6.622;2023-02-21T15:15:23;23.55;;;10.13;;
14203;SDS011;7185;51.854;6.622;2023-02-21T15:17:57;25.10;;;10.43;;
14203;SDS011;7185;51.854;6.622;2023-02-21T15:20:35;25.25;;;11.52;;
14203;SDS011;7185;51.854;6.622;2023-02-21T15:23:12;21.67;;;9.70;;
14203;SDS011;7185;51.854;6.622;2023-02-21T15:25:51;23.75;;;9.90;;
14203;SDS011;7185;51.854;6.622;2023-02-21T15:28:25;21.98;;;10.13;;
14203;SDS011;7185;51.854;6.622;2023-02-21T15:31:00;28.83;;;11.43;;
14203;SDS011;7185;51.854;6.622;2023-02-21T15:33:35;24.30;;;10.10;;
14203;SDS011;7185;51.854;6.622;2023-02-21T15:36:13;25.77;;;10.73;;
14203;SDS011;7185;51.854;6.622;2023-02-21T15:38:48;24.33;;;10.55;;
14203;SDS011;7185;51.854;6.622;2023-02-21T15:41:26;26.65;;;11.15;;
14203;SDS011;7185;51.854;6.622;2023-02-21T15:44:03;25.55;;;10.68;;
14203;SDS011;7185;51.854;6.622;2023-02-21T15:46:40;27.20;;;10.82;;
14203;SDS011;7185;51.854;6.622;2023-02-21T15:49:16;23.92;;;11.25;;
14203;SDS011;7185;51.854;6.622;2023-02-21T15:51:51;23.60;;;10.43;;
14203;SDS011;7185;51.854;6.622;2023-02-21T15:54:25;23.45;;;10.38;;
14203;SDS011;7185;51.854;6.622;2023-02-21T15:56:59;26.38;;;10.85;;
14203;SDS011;7185;51.854;6.622;2023-02-21T15:59:33;26.85;;;10.60;;
14203;SDS011;7185;51.854;6.622;2023-02-21T16:02:10;27.95;;;10.80;;
14203;SDS011;7185;51.854;6.622;2023-02-21T16:04:45;25.05;;;10.60;;
14203;SDS011;7185;51.854;6.622;2023-02-21T16:07:20;25.55;;;10.43;;
14203;SDS011;7185;51.854;6.622;2023-02-21T16:09:56;27.45;;;10.73;;
14203;SDS011;7185;51.854;6.622;2023-02-21T16:12:32;29.50;;;12.15;;
14203;SDS011;7185;51.854;6.622;2023-02-21T16:15:06;24.77;;;10.82;;
14203;SDS011;7185;51.854;6.622;2023-02-21T16:17:54;28.60;;;11.85;;
14203;SDS011;7185;51.854;6.622;2023-02-21T16:20:28;26.00;;;10.75;;
14203;SDS011;7185;51.854;6.622;2023-02-21T16:26:01;24.85;;;11.07;;
14203;SDS011;7185;51.854;6.622;2023-02-21T16:28:50;26.55;;;11.38;;
14203;SDS011;7185;51.854;6.622;2023-02-21T16:31:23;25.75;;;11.25;;
14203;SDS011;7185;51.854;6.622;2023-02-21T16:33:58;27.48;;;11.05;;
14203;SDS011;7185;51.854;6.622;2023-02-21T16:36:30;23.35;;;10.75;;
14203;SDS011;7185;51.854;6.622;2023-02-21T16:39:04;26.73;;;10.75;;